METAR AND TAF INFORMATION
METAR FOR LHBP
ADDS - METARS form results

(1546 UTC 25 May 2019)
Data provider http://aviationweather.gov/metar/data/
 
METAR text: LHBP 251530Z 32006KT 280V350 CAVOK 24/08 Q1012 NOSIG
Conditions at: LHBP (BUDAPEST/FERIHEG, HU) observed 1530 UTC 25 May 2019
Temperature: 24.0°C (75°F)
Dewpoint: 8.0°C (46°F) [RH = 36%]
Pressure (altimeter): 29.88 inches Hg (1012.0 mb)
Winds: from the NW (320 degrees) at 7 MPH (6 knots; 3.1 m/s)
Visibility: 6 or more miles (10+ km)
Ceiling: ceiling and visibility are OK
Clouds: unknown
Weather: no significant weather observed at this time

METAR text: LHBP 251500Z 33008KT 290V360 CAVOK 24/09 Q1012 NOSIG
Conditions at: LHBP (BUDAPEST/FERIHEG, HU) observed 1500 UTC 25 May 2019
Temperature: 24.0°C (75°F)
Dewpoint: 9.0°C (48°F) [RH = 38%]
Pressure (altimeter): 29.88 inches Hg (1012.0 mb)
Winds: from the NNW (330 degrees) at 9 MPH (8 knots; 4.1 m/s)
Visibility: 6 or more miles (10+ km)
Ceiling: ceiling and visibility are OK
Clouds: unknown
Weather: no significant weather observed at this time

Forecast for: LHBP (BUDAPEST/FERIHEG, HU)
Text: TAF LHBP 251115Z 2512/2612 VRB03KT CAVOK
Forecast period: 1200 UTC 25 May 2019 to 1200 UTC 26 May 2019
Forecast type: FROM: standard forecast or significant change
Winds: variable direction winds at 3 MPH (3 knots; 1.5 m/s)
Visibility: 6 or more miles 10+ km)
Ceiling: unknown
Clouds: missing
Weather: NSW  (no significant weather)
Text: TEMPO 2512/2517 32007KT FEW045
Forecast period: 1200 to 1700 UTC 25 May 2019
Forecast type: TEMPORARY: The following changes expected for less than half the time period
Winds: from the NW (320 degrees) at 8 MPH (7 knots; 3.6 m/s)
Visibility: missing
Ceiling: at least 12,000 feet AGL
Clouds: few clouds at 4500 feet AGL
Weather: no significant weather forecast for this period

 AIRPORT MAP

 RUNWAY INFORMATION
Runway 13L Runway length 12162 ft Runway width 149 ft
Runway elevation 495 ft Runway displaced threshold 0 ft Runway heading 132
Runway 31R Runway length 12162 ft Runway width 149 ft
Runway elevation 417 ft Runway displaced threshold 0 ft Runway heading 312
Runway 13R Runway length 9875 ft Runway width 149 ft
Runway elevation 450 ft Runway displaced threshold 0 ft Runway heading 132
Runway 31L Runway length 9875 ft Runway width 149 ft
Runway elevation 450 ft Runway displaced threshold 0 ft Runway heading 312

 AIRPORT FREQUENCIES
Type ACC Name BUDAPEST A Frequency 129.7 MHZ
Type APP Name DIRECTOR Frequency 119.5 MHZ
Type APRS Name Apron Guid Frequency 122.45 MHZ
Type APRW Name Apron Guid Frequency 131.55 MHZ
Type ATIS Name ATIS Frequency 132.375 MHZ
Type CDC Name Delivery Frequency 134.55 MHZ
Type GND Name GND Frequency 121.9 MHZ
Type TWR Name TWR Frequency 118.1 MHZ

 AIRPORT NEAR NAVIGATION AIDS
Type VOR-DME Name Budapest Frequency 117300 KHZ
Type VOR-DME Name Monor Frequency 112500 KHZ
Type NDB Name Monor Frequency 288 KHZ
Type VOR-DME Name Tapiosap Frequency 115900 KHZ
Type NDB Name Tapiosap Frequency 306 KHZ